Time;durP1;ratioP1;P1;durP2;ratioP2;P2;SDS_P1;SDS_P2;PMS_P1;PMS_P2;Temp;Humidity;BMP_temperature;BMP_pressure;BME280_temperature;BME280_humidity;BME280_pressure;Samples;Min_cycle;Max_cycle;Signal;HPM_P1;HPM_P2
2022/08/09 00:01:58;;;;;;;7.85;5.00;;;;;;;23.73;42.81;95081.56;5008940;28;20211;-73
2022/08/09 00:04:24;;;;;;;8.20;4.93;;;;;;;23.64;43.00;95081.06;4996292;28;20223;-69
2022/08/09 00:06:49;;;;;;;6.50;5.00;;;;;;;23.64;42.83;95089.09;4989408;28;20247;-69
2022/08/09 00:09:16;;;;;;;6.75;4.97;;;;;;;23.66;42.25;95089.69;4993977;28;20226;-64
2022/08/09 00:11:43;;;;;;;5.13;4.45;;;;;;;23.56;42.38;95084.06;5005976;28;20255;-67
2022/08/09 00:14:09;;;;;;;6.38;4.90;;;;;;;23.63;42.00;95083.94;4983106;28;20218;-67
2022/08/09 00:16:35;;;;;;;5.40;4.82;;;;;;;23.75;40.88;95091.00;5004932;28;20213;-68
2022/08/09 00:19:00;;;;;;;6.13;4.90;;;;;;;23.79;40.98;95080.63;4990374;28;20212;-67
2022/08/09 00:21:26;;;;;;;8.18;4.00;;;;;;;23.66;40.98;95084.31;4994598;28;20230;-67
2022/08/09 00:23:52;;;;;;;5.18;4.50;;;;;;;23.67;41.02;95075.22;4998518;28;20223;-67
2022/08/09 00:26:17;;;;;;;5.72;4.20;;;;;;;23.64;41.06;95080.25;4983767;28;20208;-67
2022/08/09 00:28:43;;;;;;;4.97;4.40;;;;;;;23.56;41.34;95082.19;4988700;28;20216;-67
2022/08/09 00:31:08;;;;;;;4.20;3.90;;;;;;;23.59;41.18;95086.28;4990707;28;20227;-67
2022/08/09 00:33:34;;;;;;;4.90;4.05;;;;;;;23.47;41.52;95091.66;4988056;28;20232;-67
2022/08/09 00:36:01;;;;;;;5.70;4.38;;;;;;;23.49;41.84;95089.53;4995702;28;20356;-68
2022/08/09 00:38:27;;;;;;;4.55;4.15;;;;;;;23.38;42.62;95089.50;5006781;28;20238;-67
2022/08/09 00:40:53;;;;;;;7.85;5.05;;;;;;;22.76;44.82;95095.09;4988116;28;20230;-67
2022/08/09 00:43:20;;;;;;;6.55;4.95;;;;;;;22.42;45.33;95083.94;5001742;28;20223;-66
2022/08/09 00:45:45;;;;;;;5.22;4.72;;;;;;;22.54;45.62;95092.06;4990790;28;20297;-69
2022/08/09 00:48:11;;;;;;;5.32;4.82;;;;;;;22.75;45.42;95088.91;4989620;28;20212;-69
2022/08/09 00:50:36;;;;;;;7.82;4.40;;;;;;;22.77;45.39;95096.72;4980347;28;20291;-69
2022/08/09 00:53:02;;;;;;;5.80;4.65;;;;;;;23.01;44.76;95098.50;4983053;28;20215;-71
2022/08/09 00:55:28;;;;;;;5.22;4.63;;;;;;;23.09;44.49;95094.66;4990517;28;20334;-71
2022/08/09 00:57:53;;;;;;;6.72;4.68;;;;;;;23.00;44.81;95091.50;4981779;28;20311;-71
2022/08/09 01:00:19;;;;;;;4.47;4.07;;;;;;;23.13;43.80;95097.75;4977444;28;20224;-71
2022/08/09 01:02:47;;;;;;;5.55;4.90;;;;;;;23.16;43.47;95106.13;4979719;28;20228;-70
2022/08/09 01:05:20;;;;;;;7.55;4.40;;;;;;;23.26;43.14;95113.63;4979233;28;20196;-70
2022/08/09 01:08:01;;;;;;;5.10;4.25;;;;;;;23.26;43.21;95114.47;4985443;28;20218;-71
2022/08/09 01:10:37;;;;;;;6.30;4.63;;;;;;;23.17;43.02;95113.13;4980413;28;20226;-71
2022/08/09 01:13:18;;;;;;;8.25;4.40;;;;;;;23.28;42.01;95119.56;4981970;28;20231;-72
2022/08/09 01:15:46;;;;;;;5.25;3.97;;;;;;;23.23;42.24;95116.75;4984249;28;20289;-65
2022/08/09 01:18:23;;;;;;;5.40;4.05;;;;;;;23.18;42.19;95111.28;4988959;28;20222;-65
2022/08/09 01:21:18;;;;;;;5.80;3.88;;;;;;;23.04;42.48;95113.31;4972386;28;20215;-71
2022/08/09 01:24:00;;;;;;;4.70;4.10;;;;;;;23.11;42.03;95109.50;5011649;28;20225;-71
2022/08/09 01:26:50;;;;;;;4.75;4.15;;;;;;;23.18;41.79;95103.25;5003946;28;20721;-71
2022/08/09 01:29:21;;;;;;;5.22;4.10;;;;;;;23.23;41.31;95106.03;5005023;28;20223;-71
2022/08/09 01:31:49;;;;;;;6.05;4.28;;;;;;;23.20;41.41;95093.91;5011054;28;20741;-73
2022/08/09 01:34:18;;;;;;;5.57;3.90;;;;;;;23.32;40.85;95088.56;5008167;28;20223;-71
2022/08/09 01:36:46;;;;;;;4.25;3.85;;;;;;;23.44;40.60;95086.75;5002472;28;20333;-67
2022/08/09 01:39:15;;;;;;;6.47;4.00;;;;;;;23.46;40.36;95083.81;4993447;28;20258;-69
2022/08/09 01:41:42;;;;;;;4.13;3.75;;;;;;;23.54;40.75;95072.75;4977620;28;20786;-69
2022/08/09 01:44:09;;;;;;;6.43;4.20;;;;;;;23.71;40.31;95062.13;4982676;28;20230;-69
2022/08/09 01:46:42;;;;;;;5.80;4.20;;;;;;;23.63;41.30;95057.94;4981013;28;20275;-69
2022/08/09 01:49:13;;;;;;;5.22;4.30;;;;;;;23.62;40.80;95050.13;4982951;28;20315;-67
2022/08/09 01:51:54;;;;;;;5.45;4.00;;;;;;;23.39;42.14;95054.41;4983629;28;20225;-67
2022/08/09 01:54:24;;;;;;;5.20;4.70;;;;;;;22.90;43.51;95059.00;4990642;28;20219;-66
2022/08/09 01:56:51;;;;;;;5.00;4.60;;;;;;;22.50;44.72;95064.88;4980701;28;20223;-66
2022/08/09 01:59:18;;;;;;;6.05;4.28;;;;;;;22.81;44.11;95055.84;4977515;28;20196;-67
2022/08/09 02:01:47;;;;;;;4.93;4.07;;;;;;;22.94;44.03;95051.34;4980891;28;20235;-67
2022/08/09 02:04:14;;;;;;;4.60;4.20;;;;;;;22.97;44.07;95050.91;4989241;28;20231;-67
2022/08/09 02:09:28;;;;;;;6.35;4.10;;;;;;;22.64;44.50;95047.63;4999123;28;20286;-68
2022/08/09 02:11:54;;;;;;;7.10;4.47;;;;;;;22.28;45.68;95047.66;5010334;28;20224;-67
2022/08/09 02:14:22;;;;;;;6.72;4.38;;;;;;;22.39;45.58;95046.91;4981027;28;20208;-67
2022/08/09 02:16:49;;;;;;;8.73;4.32;;;;;;;22.67;45.31;95041.00;4977787;28;20310;-67
2022/08/09 02:19:14;;;;;;;4.90;4.47;;;;;;;22.83;44.56;95043.03;5002577;28;20214;-67
2022/08/09 02:21:46;;;;;;;4.75;4.38;;;;;;;22.96;44.25;95043.88;4992329;28;20301;-68
2022/08/09 02:24:17;;;;;;;4.57;4.18;;;;;;;23.04;44.06;95048.94;4987277;28;20246;-66
2022/08/09 02:26:44;;;;;;;5.28;4.20;;;;;;;23.18;43.71;95050.41;4981930;28;20224;-64
2022/08/09 02:29:22;;;;;;;5.43;4.57;;;;;;;23.27;43.20;95062.41;4983496;28;20394;-64
2022/08/09 02:31:50;;;;;;;6.60;4.38;;;;;;;23.36;42.92;95062.09;5002927;28;20203;-67
2022/08/09 02:34:25;;;;;;;6.78;4.80;;;;;;;23.37;42.37;95072.59;4994072;28;20219;-68
2022/08/09 02:36:54;;;;;;;5.07;4.30;;;;;;;23.39;42.69;95070.53;4987897;28;20267;-66
2022/08/09 02:39:42;;;;;;;4.50;4.10;;;;;;;23.42;42.36;95072.75;4988589;28;20290;-67
2022/08/09 02:42:15;;;;;;;5.50;4.32;;;;;;;23.44;42.29;95081.38;4985617;28;20216;-67
2022/08/09 02:44:46;;;;;;;8.02;4.28;;;;;;;23.33;42.36;95080.31;4998941;28;20219;-67
2022/08/09 02:47:13;;;;;;;6.07;4.38;;;;;;;23.17;42.82;95082.81;4992531;28;20298;-67
2022/08/09 02:50:05;;;;;;;5.22;4.32;;;;;;;23.29;42.81;95089.03;4989655;28;20250;-66
2022/08/09 02:52:55;;;;;;;6.30;4.70;;;;;;;23.41;42.41;95075.63;4977545;28;20378;-67
2022/08/09 02:55:23;;;;;;;9.05;4.60;;;;;;;23.19;43.38;95080.72;4975181;28;20231;-67
2022/08/09 02:57:51;;;;;;;5.22;4.65;;;;;;;23.11;43.50;95076.50;4982815;28;20231;-67
2022/08/09 03:00:17;;;;;;;5.45;4.75;;;;;;;23.11;43.49;95082.66;4981384;28;20243;-67
2022/08/09 03:02:47;;;;;;;4.85;4.45;;;;;;;23.00;43.90;95079.97;4978653;28;20606;-67
2022/08/09 03:05:14;;;;;;;5.20;4.65;;;;;;;22.88;44.45;95079.88;4983076;28;20243;-67
2022/08/09 03:07:41;;;;;;;4.60;4.13;;;;;;;22.92;44.32;95074.88;4986296;28;20211;-67
2022/08/09 03:10:08;;;;;;;5.00;4.50;;;;;;;22.98;44.09;95084.72;4997310;28;20250;-67
2022/08/09 03:12:37;;;;;;;4.57;4.20;;;;;;;22.78;44.27;95079.59;5001932;28;20227;-67
2022/08/09 03:15:04;;;;;;;4.88;4.28;;;;;;;22.72;44.88;95077.81;5005141;28;20226;-67
2022/08/09 03:17:31;;;;;;;4.43;4.10;;;;;;;22.71;44.57;95070.81;5007877;28;20262;-67
2022/08/09 03:20:01;;;;;;;4.75;4.25;;;;;;;22.74;44.75;95076.53;5005062;28;20199;-70
2022/08/09 03:22:29;;;;;;;5.43;4.38;;;;;;;22.63;44.88;95082.66;4996314;28;20307;-69
2022/08/09 03:24:55;;;;;;;4.93;4.20;;;;;;;22.65;45.24;95077.91;4987724;28;20366;-66
2022/08/09 03:27:22;;;;;;;4.70;4.20;;;;;;;22.63;45.15;95077.31;4988880;28;20235;-66
2022/08/09 03:29:53;;;;;;;5.30;4.32;;;;;;;22.60;45.58;95085.81;4992125;28;20732;-67
2022/08/09 03:32:20;;;;;;;4.57;4.18;;;;;;;22.59;45.92;95089.53;5013543;28;20210;-67
2022/08/09 03:34:46;;;;;;;5.10;4.60;;;;;;;22.56;45.88;95090.81;4991498;28;20227;-67
2022/08/09 03:37:12;;;;;;;5.82;4.50;;;;;;;22.48;46.14;95082.22;4991560;28;20270;-67
2022/08/09 03:39:37;;;;;;;5.03;4.50;;;;;;;22.60;45.80;95086.63;4984574;28;20288;-67
2022/08/09 03:42:03;;;;;;;6.95;4.50;;;;;;;22.64;45.61;95090.50;4992844;28;20222;-67
2022/08/09 03:44:28;;;;;;;5.00;4.47;;;;;;;22.38;46.55;95088.94;5007967;28;20310;-67
2022/08/09 03:46:54;;;;;;;5.20;4.20;;;;;;;22.42;46.80;95097.34;5008253;28;20271;-67
2022/08/09 03:49:21;;;;;;;5.10;4.38;;;;;;;22.21;47.52;95098.59;4993139;28;20657;-68
2022/08/09 03:51:50;;;;;;;5.78;4.65;;;;;;;22.18;47.70;95099.00;4990868;28;20252;-69
2022/08/09 03:54:17;;;;;;;5.40;4.90;;;;;;;21.91;48.54;95099.28;4990285;28;20436;-69
2022/08/09 03:56:44;;;;;;;6.60;5.28;;;;;;;21.86;48.53;95104.47;4992723;28;20242;-69
2022/08/09 03:59:09;;;;;;;4.78;4.30;;;;;;;21.72;49.32;95108.31;4987085;28;20200;-68
2022/08/09 04:01:37;;;;;;;8.07;5.72;;;;;;;22.13;48.51;95101.53;4994249;28;20211;-66
2022/08/09 04:04:04;;;;;;;6.43;5.82;;;;;;;22.43;47.79;95093.63;4988628;28;20259;-69
2022/08/09 04:06:30;;;;;;;11.65;5.30;;;;;;;22.34;47.92;95095.78;5004310;28;20218;-69
2022/08/09 04:08:55;;;;;;;6.68;5.65;;;;;;;22.17;48.40;95110.78;5004166;28;20231;-69
2022/08/09 04:11:20;;;;;;;5.30;4.80;;;;;;;22.29;48.26;95103.66;4989296;28;20297;-69
2022/08/09 04:13:46;;;;;;;6.88;5.55;;;;;;;22.34;47.81;95098.44;4986477;28;20203;-66
2022/08/09 04:16:11;;;;;;;8.27;5.28;;;;;;;22.34;48.16;95094.97;5001935;28;20242;-67
2022/08/09 04:18:39;;;;;;;6.85;5.93;;;;;;;22.46;46.94;95083.28;4996667;28;20234;-65
2022/08/09 04:21:05;;;;;;;6.13;5.55;;;;;;;22.57;46.93;95096.97;4995155;28;20675;-68
2022/08/09 04:23:31;;;;;;;6.13;5.53;;;;;;;22.67;47.17;95108.00;5002878;28;20214;-69
2022/08/09 04:25:56;;;;;;;6.90;5.20;;;;;;;22.33;48.52;95091.47;5008550;28;20295;-66
2022/08/09 04:28:23;;;;;;;7.63;5.68;;;;;;;22.52;47.21;95099.50;4992331;28;20223;-66
2022/08/09 04:30:49;;;;;;;5.82;5.18;;;;;;;22.67;46.91;95098.09;4988815;28;20245;-66
2022/08/09 04:33:14;;;;;;;6.43;5.82;;;;;;;22.57;47.41;95107.69;4986679;28;20295;-61
2022/08/09 04:35:41;;;;;;;6.50;5.80;;;;;;;22.38;48.13;95106.88;4997861;28;20214;-60
2022/08/09 04:38:06;;;;;;;7.72;5.80;;;;;;;22.50;47.95;95098.91;4989955;28;20278;-60
2022/08/09 04:40:47;;;;;;;6.10;5.50;;;;;;;22.40;48.19;95113.66;4989235;28;20221;-61
2022/08/09 04:43:14;;;;;;;6.43;5.82;;;;;;;22.45;47.53;95113.81;4993470;28;20222;-61
2022/08/09 04:45:40;;;;;;;9.68;6.25;;;;;;;22.81;46.88;95114.81;4981349;28;20245;-61
2022/08/09 04:48:05;;;;;;;6.90;6.25;;;;;;;23.63;44.45;95119.69;4984543;28;20223;-61
2022/08/09 04:50:31;;;;;;;5.90;5.30;;;;;;;23.16;45.44;95121.41;5001708;28;20226;-61
2022/08/09 04:52:56;;;;;;;10.30;6.20;;;;;;;22.94;46.36;95129.13;4995851;28;20513;-61
2022/08/09 04:55:22;;;;;;;8.07;6.80;;;;;;;22.88;46.48;95126.28;4996641;28;20219;-62
2022/08/09 04:57:47;;;;;;;6.95;5.55;;;;;;;22.98;46.33;95124.94;5001632;28;20227;-61
2022/08/09 05:00:13;;;;;;;6.50;5.90;;;;;;;23.01;46.13;95127.16;5004223;28;20290;-60
2022/08/09 05:02:40;;;;;;;6.22;5.45;;;;;;;22.95;46.36;95122.69;4998576;28;20224;-61
2022/08/09 05:05:06;;;;;;;7.82;6.43;;;;;;;23.05;46.99;95129.19;4989519;28;20254;-66
2022/08/09 05:07:31;;;;;;;7.68;6.20;;;;;;;23.03;47.15;95127.78;5005974;28;20226;-66
2022/08/09 05:09:57;;;;;;;7.97;5.95;;;;;;;23.02;46.85;95132.31;4987079;28;20219;-66
2022/08/09 05:12:22;;;;;;;10.77;6.13;;;;;;;23.21;47.05;95126.91;4983180;28;20219;-60
2022/08/09 05:14:47;;;;;;;7.93;6.07;;;;;;;23.10;47.18;95134.69;4979362;28;20212;-61
2022/08/09 05:17:13;;;;;;;7.95;5.80;;;;;;;23.24;46.93;95123.78;4983667;28;20299;-64
2022/08/09 05:19:39;;;;;;;8.60;5.90;;;;;;;23.37;46.21;95133.50;5008717;28;20202;-60
2022/08/09 05:22:04;;;;;;;6.97;6.28;;;;;;;23.32;46.46;95126.13;4991201;28;20238;-61
2022/08/09 05:24:30;;;;;;;8.32;6.03;;;;;;;23.18;46.53;95132.75;4982744;28;20223;-62
2022/08/09 05:26:55;;;;;;;7.60;6.20;;;;;;;23.27;46.02;95131.38;4978727;28;20235;-64
2022/08/09 05:29:21;;;;;;;8.82;6.28;;;;;;;23.46;45.80;95143.66;4985659;28;20452;-63
2022/08/09 05:31:47;;;;;;;9.52;6.18;;;;;;;23.44;45.59;95144.94;4978014;28;20200;-63
2022/08/09 05:34:14;;;;;;;9.82;6.25;;;;;;;23.40;45.88;95146.47;4984549;28;20224;-65
2022/08/09 05:36:40;;;;;;;9.85;5.78;;;;;;;23.42;46.16;95147.06;4983443;28;20258;-65
2022/08/09 05:39:06;;;;;;;9.05;5.97;;;;;;;23.39;46.99;95147.50;4991055;28;20214;-66
2022/08/09 05:41:31;;;;;;;7.63;6.72;;;;;;;23.47;46.95;95145.31;4996448;28;20234;-65
2022/08/09 05:43:57;;;;;;;9.90;6.30;;;;;;;23.58;46.60;95145.59;4988968;28;20207;-67
2022/08/09 05:46:23;;;;;;;9.50;6.28;;;;;;;23.44;46.53;95148.47;5000634;28;20271;-66
2022/08/09 05:48:48;;;;;;;10.23;6.53;;;;;;;23.31;46.95;95146.78;5001370;28;20781;-64
2022/08/09 05:51:14;;;;;;;8.15;6.10;;;;;;;23.29;47.26;95143.50;5007730;28;20273;-68
2022/08/09 05:53:39;;;;;;;11.40;6.30;;;;;;;23.49;46.76;95143.22;5003952;28;20214;-65
2022/08/09 05:56:05;;;;;;;8.32;6.80;;;;;;;23.75;45.75;95144.69;5001882;28;20218;-68
2022/08/09 05:58:30;;;;;;;13.60;7.18;;;;;;;23.80;45.19;95145.88;5002576;28;20732;-67
2022/08/09 06:00:55;;;;;;;7.45;6.20;;;;;;;23.94;44.73;95145.44;4991578;28;20282;-67
2022/08/09 06:03:21;;;;;;;8.18;6.65;;;;;;;23.95;44.53;95140.88;5006126;28;20230;-67
2022/08/09 06:05:46;;;;;;;7.85;6.40;;;;;;;23.78;44.60;95146.09;4997055;28;20275;-65
2022/08/09 06:08:12;;;;;;;7.28;6.57;;;;;;;23.78;45.14;95138.88;4985843;28;20211;-65
2022/08/09 06:10:37;;;;;;;8.55;6.00;;;;;;;23.88;44.56;95146.38;5003935;28;20219;-65
2022/08/09 06:13:08;;;;;;;6.93;6.00;;;;;;;24.01;44.77;95145.34;5000420;28;20220;-66
2022/08/09 06:15:34;;;;;;;8.48;6.68;;;;;;;24.09;44.82;95134.25;4997336;28;20642;-69
2022/08/09 06:17:59;;;;;;;8.35;6.45;;;;;;;23.97;44.59;95139.59;4997149;28;20242;-67
2022/08/09 06:20:25;;;;;;;6.40;5.80;;;;;;;24.02;44.96;95138.91;4990955;28;20195;-65
2022/08/09 06:22:51;;;;;;;9.25;7.28;;;;;;;24.15;44.93;95141.34;4976007;28;20225;-66
2022/08/09 06:25:16;;;;;;;6.85;6.25;;;;;;;24.20;44.66;95141.47;4981077;28;20345;-68
2022/08/09 06:27:41;;;;;;;10.38;8.02;;;;;;;23.95;45.71;95144.41;4975341;28;20215;-70
2022/08/09 06:30:08;;;;;;;7.80;6.97;;;;;;;24.26;44.45;95141.59;4989874;28;20317;-67
2022/08/09 06:32:33;;;;;;;11.38;8.68;;;;;;;24.37;42.76;95146.13;4993964;28;20219;-66
2022/08/09 06:34:59;;;;;;;8.65;7.85;;;;;;;24.54;42.98;95147.09;4999884;28;20205;-70
2022/08/09 06:37:24;;;;;;;8.45;7.65;;;;;;;24.50;43.38;95143.25;4982001;28;20254;-68
2022/08/09 06:39:49;;;;;;;10.30;7.47;;;;;;;24.58;43.41;95134.81;4976110;28;20224;-66
2022/08/09 06:42:17;;;;;;;7.47;6.72;;;;;;;24.59;43.39;95147.22;4980892;28;20218;-65
2022/08/09 06:44:42;;;;;;;8.63;6.85;;;;;;;24.62;42.59;95141.38;4971504;28;20325;-65
2022/08/09 06:47:07;;;;;;;10.40;7.85;;;;;;;24.67;42.47;95137.13;4979810;28;20253;-66
2022/08/09 06:49:33;;;;;;;10.88;9.50;;;;;;;24.59;42.02;95136.47;4963441;28;20223;-67
2022/08/09 06:51:58;;;;;;;8.73;7.93;;;;;;;24.61;42.53;95134.34;4987094;28;20237;-65
2022/08/09 06:54:24;;;;;;;7.55;6.90;;;;;;;24.74;42.31;95133.25;4989119;28;20227;-66
2022/08/09 06:56:49;;;;;;;8.10;7.30;;;;;;;24.68;42.47;95134.22;5001765;28;20223;-65
2022/08/09 06:59:14;;;;;;;8.15;7.03;;;;;;;24.90;41.51;95137.09;4985998;28;20307;-65
2022/08/09 07:01:40;;;;;;;8.30;7.40;;;;;;;24.91;41.70;95130.63;5005048;28;20209;-66
2022/08/09 07:04:05;;;;;;;7.80;7.00;;;;;;;24.97;41.57;95132.41;5009581;28;20222;-64
2022/08/09 07:06:31;;;;;;;11.23;6.90;;;;;;;25.05;42.03;95129.31;4994946;28;20247;-64
2022/08/09 07:08:56;;;;;;;7.22;6.60;;;;;;;25.09;40.81;95122.38;4989944;28;20223;-65
2022/08/09 07:11:22;;;;;;;8.35;6.68;;;;;;;25.11;40.46;95126.75;4988145;28;20320;-65
2022/08/09 07:13:47;;;;;;;8.18;7.15;;;;;;;25.13;40.21;95129.97;4989827;28;20257;-63
2022/08/09 07:16:12;;;;;;;7.03;6.43;;;;;;;25.19;39.92;95123.69;5005454;28;20227;-64
2022/08/09 07:18:38;;;;;;;9.02;6.72;;;;;;;25.23;40.09;95120.28;5004691;28;20227;-66
2022/08/09 07:21:03;;;;;;;7.57;6.88;;;;;;;25.32;40.74;95128.78;4996176;28;20233;-65
2022/08/09 07:23:29;;;;;;;7.72;6.95;;;;;;;25.47;39.29;95129.06;4981645;28;20297;-66
2022/08/09 07:25:54;;;;;;;7.40;6.13;;;;;;;25.42;39.46;95134.34;4981834;28;20208;-65
2022/08/09 07:28:20;;;;;;;9.63;8.35;;;;;;;25.42;39.62;95126.28;4981397;28;20223;-66
2022/08/09 07:30:45;;;;;;;9.18;7.55;;;;;;;25.41;40.72;95115.75;5001094;28;20625;-65
2022/08/09 07:33:11;;;;;;;8.23;7.45;;;;;;;25.42;40.09;95126.28;4994695;28;20220;-65
2022/08/09 07:35:37;;;;;;;7.95;6.30;;;;;;;25.50;39.45;95125.88;4992802;28;20294;-65
2022/08/09 07:38:02;;;;;;;7.13;6.47;;;;;;;25.66;39.30;95131.50;5012715;28;20297;-66
2022/08/09 07:40:29;;;;;;;7.50;6.47;;;;;;;25.75;38.84;95132.75;5006185;28;20274;-64
2022/08/09 07:42:58;;;;;;;6.90;5.93;;;;;;;25.98;38.25;95133.69;4990125;28;20234;-65
2022/08/09 07:45:26;;;;;;;6.53;4.85;;;;;;;25.99;37.33;95140.72;4983707;28;20243;-65
2022/08/09 07:47:53;;;;;;;7.03;5.95;;;;;;;25.92;37.70;95130.91;4976246;28;20226;-66
2022/08/09 07:50:20;;;;;;;5.85;5.35;;;;;;;25.95;37.34;95135.00;4992411;28;20314;-64
2022/08/09 07:52:45;;;;;;;6.35;5.45;;;;;;;26.01;36.68;95131.34;5008798;28;20589;-65
2022/08/09 07:55:11;;;;;;;7.45;6.25;;;;;;;26.08;37.16;95126.56;4991455;28;20229;-63
2022/08/09 07:57:37;;;;;;;5.72;4.78;;;;;;;26.13;36.18;95136.63;4991624;28;20215;-64
2022/08/09 08:00:05;;;;;;;7.18;5.13;;;;;;;26.18;36.72;95134.81;4989470;28;20220;-66
2022/08/09 08:02:30;;;;;;;8.90;4.70;;;;;;;26.12;36.29;95121.53;4992207;28;20628;-65
2022/08/09 08:04:56;;;;;;;5.72;5.10;;;;;;;26.28;36.20;95128.78;5013279;28;20283;-64
2022/08/09 08:07:21;;;;;;;6.25;4.80;;;;;;;26.34;35.77;95130.47;4983816;28;20224;-64
2022/08/09 08:09:47;;;;;;;9.23;4.57;;;;;;;26.37;35.41;95129.97;4977885;28;20275;-64
2022/08/09 08:12:12;;;;;;;5.03;4.55;;;;;;;26.31;35.38;95119.38;4984498;28;20258;-64
2022/08/09 08:14:37;;;;;;;7.53;5.07;;;;;;;26.32;35.08;95124.50;4992031;28;20255;-64
2022/08/09 08:17:03;;;;;;;6.00;4.57;;;;;;;26.27;35.36;95113.66;4984413;28;20204;-65
2022/08/09 08:19:28;;;;;;;7.38;4.70;;;;;;;26.32;35.71;95118.31;4986111;28;20702;-66
2022/08/09 08:21:54;;;;;;;7.15;4.53;;;;;;;26.35;36.13;95112.41;4988136;28;20274;-67
2022/08/09 08:24:19;;;;;;;7.40;4.40;;;;;;;26.45;35.48;95111.75;4982976;28;20234;-65
2022/08/09 08:26:45;;;;;;;5.65;4.20;;;;;;;26.60;34.34;95098.50;4995106;28;20211;-68
2022/08/09 08:29:10;;;;;;;7.07;4.32;;;;;;;26.65;34.32;95103.97;5008633;28;20737;-67
2022/08/09 08:31:35;;;;;;;5.75;3.88;;;;;;;26.58;34.79;95106.03;4986422;28;20212;-67
2022/08/09 08:34:01;;;;;;;5.75;4.13;;;;;;;26.62;36.58;95093.66;4985181;28;20212;-66
2022/08/09 08:36:26;;;;;;;5.30;4.20;;;;;;;26.75;34.09;95087.88;4984701;28;20550;-67
2022/08/09 08:38:52;;;;;;;4.38;3.88;;;;;;;26.87;33.45;95095.06;4986112;28;20214;-64
2022/08/09 08:41:19;;;;;;;4.32;4.03;;;;;;;26.81;34.78;95089.59;4975748;28;20242;-64
2022/08/09 08:43:44;;;;;;;6.05;4.15;;;;;;;26.79;33.34;95088.22;4987595;28;20207;-69
2022/08/09 08:46:11;;;;;;;4.38;3.97;;;;;;;26.87;34.07;95089.66;5004470;28;20254;-72
2022/08/09 08:48:40;;;;;;;5.32;3.85;;;;;;;26.92;33.70;95093.22;4993606;28;20227;-70
2022/08/09 08:51:05;;;;;;;5.63;3.72;;;;;;;27.02;32.15;95090.66;5007443;28;20226;-69
2022/08/09 08:53:31;;;;;;;6.97;4.28;;;;;;;27.02;32.14;95087.13;4980181;28;20228;-70
2022/08/09 08:55:58;;;;;;;4.22;3.65;;;;;;;27.05;34.42;95089.31;4982247;28;20664;-70
2022/08/09 08:58:25;;;;;;;4.10;3.20;;;;;;;27.03;32.40;95084.19;4984782;28;20734;-69
2022/08/09 09:00:51;;;;;;;4.00;3.70;;;;;;;27.16;32.46;95074.88;4982919;28;20725;-70
2022/08/09 09:03:17;;;;;;;4.43;3.45;;;;;;;27.32;30.82;95075.03;4991812;28;20219;-66
2022/08/09 09:05:44;;;;;;;4.22;3.05;;;;;;;27.36;30.14;95070.75;4990162;28;20302;-66
2022/08/09 09:08:12;;;;;;;4.38;3.00;;;;;;;27.36;31.20;95065.38;5008291;28;20545;-67
2022/08/09 09:10:41;;;;;;;4.15;3.60;;;;;;;27.50;29.91;95066.56;5001963;28;20219;-67
2022/08/09 09:13:07;;;;;;;4.07;3.67;;;;;;;27.54;30.82;95062.28;4998148;28;20312;-67
2022/08/09 09:15:33;;;;;;;5.88;3.00;;;;;;;27.54;28.75;95059.59;4982756;28;20239;-65
2022/08/09 09:17:59;;;;;;;4.57;4.18;;;;;;;27.77;30.94;95065.69;4982248;28;20231;-68
2022/08/09 09:20:24;;;;;;;3.78;3.00;;;;;;;27.84;27.95;95061.75;4986544;28;20321;-68
2022/08/09 09:22:50;;;;;;;3.33;3.03;;;;;;;27.97;29.27;95055.09;4981915;28;20269;-68
2022/08/09 09:25:34;;;;;;;6.63;3.05;;;;;;;28.15;26.87;95056.56;4977597;28;20450;-67
2022/08/09 09:28:01;;;;;;;4.50;4.10;;;;;;;28.23;29.18;95061.47;4973452;28;20289;-67
2022/08/09 09:30:27;;;;;;;3.38;2.90;;;;;;;28.25;26.66;95047.69;4996340;28;20231;-69
2022/08/09 09:33:04;;;;;;;4.32;2.60;;;;;;;28.29;25.49;95051.50;5003081;28;20247;-68
2022/08/09 09:35:30;;;;;;;3.67;2.75;;;;;;;28.34;26.12;95046.94;4977452;28;20729;-68
2022/08/09 09:37:56;;;;;;;8.80;3.00;;;;;;;28.49;26.27;95039.97;4980487;28;20239;-68
2022/08/09 09:40:40;;;;;;;5.40;2.78;;;;;;;28.66;27.60;95046.03;4975945;28;20220;-68
2022/08/09 09:43:05;;;;;;;2.67;2.38;;;;;;;28.74;23.56;95031.97;4974578;28;20235;-68
2022/08/09 09:45:46;;;;;;;3.28;2.97;;;;;;;28.81;23.31;95037.13;4978328;28;20236;-67
2022/08/09 09:48:12;;;;;;;2.97;2.60;;;;;;;28.97;24.70;95036.09;5001589;28;20227;-66
2022/08/09 09:50:46;;;;;;;7.00;3.28;;;;;;;29.25;24.81;95036.75;5002013;28;20227;-69
2022/08/09 09:53:26;;;;;;;3.47;2.72;;;;;;;29.18;24.27;95030.75;5003574;28;20211;-68
2022/08/09 09:56:00;;;;;;;4.05;2.88;;;;;;;28.96;25.13;95033.66;5001899;28;20195;-68
2022/08/09 09:58:43;;;;;;;4.93;3.05;;;;;;;28.80;26.61;95036.31;5006277;28;20222;-67
2022/08/09 10:01:17;;;;;;;4.15;2.50;;;;;;;28.79;26.19;95028.50;5000962;28;20246;-68
2022/08/09 10:03:45;;;;;;;4.40;2.80;;;;;;;28.88;27.04;95021.47;5000855;28;20219;-68
2022/08/09 10:06:11;;;;;;;3.42;2.50;;;;;;;29.19;24.35;95027.78;5007318;28;20697;-68
2022/08/09 10:08:37;;;;;;;4.15;3.10;;;;;;;29.26;25.92;95027.53;4999836;28;20227;-68
2022/08/09 10:11:16;;;;;;;3.00;2.40;;;;;;;29.20;24.74;95028.59;4989174;28;20254;-67
2022/08/09 10:13:42;;;;;;;2.70;2.50;;;;;;;29.40;26.54;95027.81;5008352;28;20229;-66
2022/08/09 10:16:08;;;;;;;8.18;2.50;;;;;;;29.73;23.17;95025.69;4993366;28;20306;-65
2022/08/09 10:18:34;;;;;;;3.10;1.98;;;;;;;30.01;21.52;95027.81;4996578;28;20263;-65
2022/08/09 10:21:09;;;;;;;3.10;2.25;;;;;;;30.15;23.60;95019.91;5005063;28;20230;-65
2022/08/09 10:23:36;;;;;;;3.28;2.75;;;;;;;30.14;23.27;95031.03;5005158;28;20671;-65
2022/08/09 10:26:02;;;;;;;4.38;2.80;;;;;;;30.00;23.61;95023.47;5020718;28;20300;-67
2022/08/09 10:28:32;;;;;;;6.43;2.63;;;;;;;29.99;22.75;95023.75;4986263;28;20310;-68
2022/08/09 10:30:58;;;;;;;3.00;2.50;;;;;;;29.99;23.46;95021.03;4990257;28;20232;-67
2022/08/09 10:33:24;;;;;;;3.38;2.30;;;;;;;30.39;23.02;95028.28;4987066;28;20290;-65
2022/08/09 10:35:50;;;;;;;4.18;2.17;;;;;;;30.87;21.71;95012.38;4979226;28;20670;-65
2022/08/09 10:38:18;;;;;;;4.78;2.72;;;;;;;31.22;23.83;95013.25;5001342;28;20236;-66
2022/08/09 10:40:44;;;;;;;3.35;2.38;;;;;;;31.52;22.40;95020.41;4972180;28;20564;-66
2022/08/09 10:43:11;;;;;;;3.15;2.50;;;;;;;31.66;22.37;95006.97;4982829;28;20223;-66
2022/08/09 10:45:41;;;;;;;4.60;2.70;;;;;;;31.83;22.79;95011.97;4987650;28;20310;-65
2022/08/09 10:48:40;;;;;;;3.97;3.58;;;;;;;31.95;21.60;94998.84;4990916;28;20238;-65
2022/08/09 10:51:17;;;;;;;4.95;2.67;;;;;;;31.83;20.92;95006.53;4990048;28;20231;-66
2022/08/09 10:54:05;;;;;;;3.75;2.40;;;;;;;31.63;22.45;95019.22;4989571;28;20226;-64
2022/08/09 10:56:33;;;;;;;2.53;2.33;;;;;;;31.33;24.32;95019.41;4977516;28;20227;-64
2022/08/09 10:59:02;;;;;;;4.18;2.50;;;;;;;31.08;21.20;95006.81;4974270;28;20211;-64
2022/08/09 11:01:30;;;;;;;3.83;2.42;;;;;;;30.93;21.09;95013.97;5003170;28;20219;-66
2022/08/09 11:04:14;;;;;;;3.28;2.33;;;;;;;30.73;22.90;95014.03;4994532;28;20232;-65
2022/08/09 11:06:41;;;;;;;4.05;2.33;;;;;;;30.50;22.43;95023.63;4988759;28;20255;-65
2022/08/09 11:09:08;;;;;;;5.55;2.60;;;;;;;30.42;22.61;95016.91;4986392;28;20953;-65
2022/08/09 11:11:53;;;;;;;5.63;2.90;;;;;;;30.41;23.75;95020.69;4998834;28;20224;-66
2022/08/09 11:14:43;;;;;;;2.78;2.58;;;;;;;30.61;24.08;95006.25;4982249;28;20747;-67
2022/08/09 11:17:14;;;;;;;3.35;2.92;;;;;;;30.69;22.90;95004.84;4977639;28;20213;-66
2022/08/09 11:19:52;;;;;;;4.88;2.58;;;;;;;30.79;23.75;95007.50;4985086;28;20210;-68
2022/08/09 11:22:18;;;;;;;4.72;2.70;;;;;;;31.24;22.00;95002.91;4986960;28;20234;-66
2022/08/09 11:24:56;;;;;;;2.72;2.30;;;;;;;31.85;22.70;95009.78;5004692;28;20250;-68
2022/08/09 11:27:37;;;;;;;2.60;2.40;;;;;;;32.24;20.29;95006.97;4988756;28;20248;-68
2022/08/09 11:30:04;;;;;;;3.67;2.30;;;;;;;32.46;18.37;95003.72;4989280;28;20219;-66
2022/08/09 11:33:02;;;;;;;3.67;2.20;;;;;;;31.83;18.22;95001.91;5002591;28;20712;-67
2022/08/09 11:35:36;;;;;;;2.72;2.53;;;;;;;31.55;21.45;95003.53;4998367;28;20649;-68
2022/08/09 11:38:23;;;;;;;2.83;2.60;;;;;;;31.39;24.02;95002.03;5000237;28;20701;-66
2022/08/09 11:40:51;;;;;;;5.00;3.13;;;;;;;31.31;22.71;94995.25;4991130;28;20627;-64
2022/08/09 11:43:28;;;;;;;3.85;2.70;;;;;;;31.42;25.37;95004.97;4983321;28;20226;-64